Time;durP1;ratioP1;P1;durP2;ratioP2;P2;SDS_P1;SDS_P2;PMS_P1;PMS_P2;Temp;Humidity;BMP_temperature;BMP_pressure;BME280_temperature;BME280_humidity;BME280_pressure;Samples;Min_cycle;Max_cycle;Signal;HPM_P1;HPM_P2
2023/06/11 00:01:24;;;;;;;14.43;8.27;;;;;;;;;;4971418;28;20042;-83
2023/06/11 00:04:13;;;;;;;11.00;8.43;;;;;;;;;;4985691;28;20042;-84
2023/06/11 00:06:59;;;;;;;12.98;8.57;;;;;;;;;;4971951;28;20050;-83
2023/06/11 00:09:44;;;;;;;13.85;8.90;;;;;;;;;;4992884;28;20046;-83
2023/06/11 00:12:30;;;;;;;12.30;8.52;;;;;;;;;;4993897;28;20045;-83
2023/06/11 00:15:15;;;;;;;12.70;8.95;;;;;;;;;;4978963;28;20046;-83
2023/06/11 00:18:01;;;;;;;12.13;9.20;;;;;;;;;;4971794;28;20066;-84
2023/06/11 00:20:47;;;;;;;11.77;9.52;;;;;;;;;;4978789;28;20050;-83
2023/06/11 00:23:36;;;;;;;13.52;8.93;;;;;;;;;;4985634;28;20055;-84
2023/06/11 00:26:22;;;;;;;10.70;9.25;;;;;;;;;;4972282;28;20058;-83
2023/06/11 00:29:08;;;;;;;13.60;9.25;;;;;;;;;;4975026;28;20038;-83
2023/06/11 00:31:54;;;;;;;12.73;9.60;;;;;;;;;;4989096;28;20046;-83
2023/06/11 00:34:40;;;;;;;13.02;9.45;;;;;;;;;;4975135;28;20046;-84
2023/06/11 00:37:26;;;;;;;12.80;9.48;;;;;;;;;;4984141;28;20062;-83
2023/06/11 00:40:11;;;;;;;18.60;10.30;;;;;;;;;;4975315;28;20475;-83
2023/06/11 00:42:57;;;;;;;11.88;9.50;;;;;;;;;;4974655;28;20058;-83
2023/06/11 00:45:44;;;;;;;12.07;9.05;;;;;;;;;;4989053;28;20054;-83
2023/06/11 00:48:29;;;;;;;12.10;9.10;;;;;;;;;;4975126;28;20046;-83
2023/06/11 00:51:17;;;;;;;12.70;9.40;;;;;;;;;;4975589;28;20379;-83
2023/06/11 00:54:03;;;;;;;11.95;9.40;;;;;;;;;;4974840;28;20050;-83
2023/06/11 00:56:48;;;;;;;11.00;8.90;;;;;;;;;;4988159;28;20046;-83
2023/06/11 00:59:34;;;;;;;12.75;8.98;;;;;;;;;;4988495;28;20046;-83
2023/06/11 01:02:33;;;;;;;11.98;9.18;;;;;;;;;;4974578;28;20042;-83
2023/06/11 01:05:21;;;;;;;12.10;9.35;;;;;;;;;;4974722;28;20046;-83
2023/06/11 01:08:07;;;;;;;13.90;9.13;;;;;;;;;;4988422;28;20407;-83
2023/06/11 01:10:56;;;;;;;11.40;9.10;;;;;;;;;;4996147;28;20054;-83
2023/06/11 01:13:41;;;;;;;12.05;8.88;;;;;;;;;;4988270;28;20042;-82
2023/06/11 01:16:36;;;;;;;12.57;9.52;;;;;;;;;;5001533;28;20407;-83
2023/06/11 01:20:03;;;;;;;12.57;8.63;;;;;;;;;;4974307;28;20042;-83
2023/06/11 01:23:20;;;;;;;11.27;9.38;;;;;;;;;;4995933;28;20396;-83
2023/06/11 01:26:32;;;;;;;15.07;9.60;;;;;;;;;;5001875;28;20046;-83
2023/06/11 01:29:21;;;;;;;12.60;8.77;;;;;;;;;;4950987;28;20054;-83
2023/06/11 01:32:07;;;;;;;14.43;9.55;;;;;;;;;;4987685;28;20066;-82
2023/06/11 01:35:03;;;;;;;13.80;9.60;;;;;;;;;;4987877;28;20050;-83
2023/06/11 01:37:59;;;;;;;11.35;9.75;;;;;;;;;;4969166;28;20046;-83
2023/06/11 01:40:57;;;;;;;13.07;10.40;;;;;;;;;;4987637;28;20046;-83
2023/06/11 01:43:42;;;;;;;13.10;10.18;;;;;;;;;;4987683;28;20054;-83
2023/06/11 01:46:28;;;;;;;14.52;9.90;;;;;;;;;;4987456;28;20057;-84
2023/06/11 01:49:13;;;;;;;12.98;10.27;;;;;;;;;;4988388;28;20050;-83
2023/06/11 01:51:59;;;;;;;14.05;10.32;;;;;;;;;;4995562;28;20046;-83
2023/06/11 01:54:44;;;;;;;12.57;9.75;;;;;;;;;;4995587;28;20046;-83
2023/06/11 01:57:32;;;;;;;13.35;10.27;;;;;;;;;;4974148;28;20467;-83
2023/06/11 02:00:18;;;;;;;16.88;10.35;;;;;;;;;;4973543;28;20050;-83
2023/06/11 02:03:05;;;;;;;14.98;10.50;;;;;;;;;;4995748;28;20042;-83
2023/06/11 02:05:51;;;;;;;14.70;10.90;;;;;;;;;;4973782;28;20042;-83
2023/06/11 02:08:36;;;;;;;14.05;10.38;;;;;;;;;;4987250;28;20050;-83
2023/06/11 02:11:22;;;;;;;16.98;11.13;;;;;;;;;;4987230;28;20054;-83
2023/06/11 02:14:07;;;;;;;16.80;11.00;;;;;;;;;;4972931;28;20407;-83
2023/06/11 02:16:52;;;;;;;18.45;11.25;;;;;;;;;;4987095;28;20051;-83
2023/06/11 02:19:39;;;;;;;17.52;11.38;;;;;;;;;;4986991;28;20042;-83
2023/06/11 02:22:24;;;;;;;12.70;9.93;;;;;;;;;;4987307;28;20396;-82
2023/06/11 02:25:10;;;;;;;16.60;10.45;;;;;;;;;;4973812;28;20054;-83
2023/06/11 02:27:55;;;;;;;14.88;10.63;;;;;;;;;;5000294;28;20050;-83
2023/06/11 02:30:41;;;;;;;16.38;11.65;;;;;;;;;;4973462;28;20046;-83
2023/06/11 02:33:27;;;;;;;16.13;12.10;;;;;;;;;;4986628;28;20403;-83
2023/06/11 02:36:12;;;;;;;16.38;11.65;;;;;;;;;;4985507;28;20058;-83
2023/06/11 02:38:58;;;;;;;16.85;12.13;;;;;;;;;;4973163;28;20054;-83
2023/06/11 02:41:43;;;;;;;17.65;11.38;;;;;;;;;;4972837;28;20050;-83
2023/06/11 02:44:29;;;;;;;17.58;11.07;;;;;;;;;;4994826;28;20042;-83
2023/06/11 02:47:15;;;;;;;14.48;10.52;;;;;;;;;;4986822;28;20050;-83
2023/06/11 02:50:00;;;;;;;18.38;10.90;;;;;;;;;;4986910;28;20043;-83
2023/06/11 02:52:45;;;;;;;13.60;10.85;;;;;;;;;;4986586;28;20043;-83
2023/06/11 02:55:30;;;;;;;15.73;10.68;;;;;;;;;;4986059;28;20034;-83
2023/06/11 02:58:15;;;;;;;16.83;9.80;;;;;;;;;;4986445;28;20057;-83
2023/06/11 03:01:00;;;;;;;11.95;9.60;;;;;;;;;;4973132;28;20046;-83
2023/06/11 03:03:46;;;;;;;14.57;10.45;;;;;;;;;;4986445;28;20038;-83
2023/06/11 03:06:35;;;;;;;14.55;9.70;;;;;;;;;;4986120;28;20050;-83
2023/06/11 03:09:23;;;;;;;18.92;10.02;;;;;;;;;;4972663;28;20047;-83
2023/06/11 03:12:09;;;;;;;13.45;10.18;;;;;;;;;;4972923;28;20042;-83
2023/06/11 03:14:55;;;;;;;12.43;9.65;;;;;;;;;;4986152;28;20467;-83
2023/06/11 03:17:41;;;;;;;13.65;9.57;;;;;;;;;;4986158;28;20050;-83
2023/06/11 03:20:26;;;;;;;11.63;9.55;;;;;;;;;;4972991;28;20049;-83
2023/06/11 03:23:14;;;;;;;11.85;9.30;;;;;;;;;;4985893;28;20046;-82
2023/06/11 03:26:00;;;;;;;11.88;9.80;;;;;;;;;;4986726;28;20054;-83
2023/06/11 03:28:51;;;;;;;13.18;8.90;;;;;;;;;;4973752;28;20054;-82
2023/06/11 03:31:40;;;;;;;13.57;9.00;;;;;;;;;;4986720;28;20042;-83
2023/06/11 03:34:26;;;;;;;16.10;10.13;;;;;;;;;;4992427;28;20050;-82
2023/06/11 03:37:15;;;;;;;14.02;9.23;;;;;;;;;;5001966;28;20047;-82
2023/06/11 03:40:00;;;;;;;15.43;10.13;;;;;;;;;;4985234;28;20471;-82
2023/06/11 03:42:46;;;;;;;13.48;9.52;;;;;;;;;;4990762;28;20475;-83
2023/06/11 03:45:31;;;;;;;17.08;10.52;;;;;;;;;;4976736;28;20042;-82
2023/06/11 03:48:17;;;;;;;23.67;11.77;;;;;;;;;;5005334;28;20050;-83
2023/06/11 03:51:03;;;;;;;13.52;10.20;;;;;;;;;;4991320;28;20058;-83
2023/06/11 03:53:48;;;;;;;13.07;9.50;;;;;;;;;;4985827;28;20042;-83
2023/06/11 03:56:34;;;;;;;19.70;10.18;;;;;;;;;;4972528;28;20042;-83
2023/06/11 03:59:20;;;;;;;14.68;10.07;;;;;;;;;;4985761;28;20042;-83
2023/06/11 04:02:05;;;;;;;13.52;9.13;;;;;;;;;;4999851;28;20057;-82
2023/06/11 04:04:52;;;;;;;11.65;8.65;;;;;;;;;;4997383;28;20042;-83
2023/06/11 04:07:39;;;;;;;12.45;9.50;;;;;;;;;;4989671;28;20046;-83
2023/06/11 04:10:26;;;;;;;12.90;8.80;;;;;;;;;;4976105;28;20050;-83
2023/06/11 04:13:12;;;;;;;9.95;8.48;;;;;;;;;;4989128;28;20042;-83
2023/06/11 04:15:57;;;;;;;11.20;8.80;;;;;;;;;;4989465;28;20046;-83
2023/06/11 04:18:42;;;;;;;11.88;9.20;;;;;;;;;;4988899;28;20046;-83
2023/06/11 04:21:29;;;;;;;12.45;9.10;;;;;;;;;;5002927;28;20050;-83
2023/06/11 04:24:15;;;;;;;10.38;8.57;;;;;;;;;;4975863;28;20058;-83
2023/06/11 04:27:01;;;;;;;12.07;8.30;;;;;;;;;;4996936;28;20395;-83
2023/06/11 04:29:48;;;;;;;11.77;8.63;;;;;;;;;;4975463;28;20046;-83
2023/06/11 04:32:36;;;;;;;11.23;8.75;;;;;;;;;;5003099;28;20042;-83
2023/06/11 04:35:26;;;;;;;11.43;8.07;;;;;;;;;;4975370;28;20046;-83
2023/06/11 04:38:12;;;;;;;14.02;8.77;;;;;;;;;;4982521;28;20050;-83
2023/06/11 04:41:00;;;;;;;11.40;9.15;;;;;;;;;;4988547;28;20050;-83
2023/06/11 04:43:46;;;;;;;17.48;8.32;;;;;;;;;;4975213;28;20483;-83
2023/06/11 04:46:34;;;;;;;11.73;7.90;;;;;;;;;;4988652;28;20055;-83
2023/06/11 04:49:21;;;;;;;12.45;7.25;;;;;;;;;;4988784;28;20042;-82
2023/06/11 04:52:08;;;;;;;8.90;7.88;;;;;;;;;;4975617;28;20054;-83
2023/06/11 04:54:55;;;;;;;11.52;8.23;;;;;;;;;;4988312;28;20042;-83
2023/06/11 04:57:41;;;;;;;12.93;7.68;;;;;;;;;;4967039;28;20047;-82
2023/06/11 05:00:28;;;;;;;12.25;8.02;;;;;;;;;;4949703;28;20477;-83
2023/06/11 05:03:17;;;;;;;8.65;7.75;;;;;;;;;;4950025;28;20426;-82
2023/06/11 05:06:04;;;;;;;11.57;7.72;;;;;;;;;;4971185;28;20051;-83
2023/06/11 05:08:52;;;;;;;12.05;8.23;;;;;;;;;;4953849;28;20050;-83
2023/06/11 05:11:43;;;;;;;9.88;7.47;;;;;;;;;;4968609;28;20050;-83
2023/06/11 05:14:29;;;;;;;11.25;8.30;;;;;;;;;;4967370;28;20055;-83
2023/06/11 05:17:15;;;;;;;8.95;7.40;;;;;;;;;;4968092;28;20039;-84
2023/06/11 05:20:01;;;;;;;9.90;7.13;;;;;;;;;;4969075;28;20051;-83
2023/06/11 05:22:46;;;;;;;10.32;7.57;;;;;;;;;;4968333;28;20043;-83
2023/06/11 05:25:31;;;;;;;8.07;7.00;;;;;;;;;;4982485;28;20059;-84
2023/06/11 05:28:20;;;;;;;11.20;7.00;;;;;;;;;;4982135;28;20046;-82
2023/06/11 05:31:11;;;;;;;7.80;6.70;;;;;;;;;;4968419;28;20050;-83
2023/06/11 05:33:58;;;;;;;7.70;6.65;;;;;;;;;;4968111;28;20050;-83
2023/06/11 05:36:48;;;;;;;12.63;7.70;;;;;;;;;;4979186;28;20059;-83
2023/06/11 05:39:35;;;;;;;8.85;6.80;;;;;;;;;;4968955;28;20050;-83
2023/06/11 05:42:22;;;;;;;10.90;7.38;;;;;;;;;;4968287;28;20051;-84
2023/06/11 05:45:08;;;;;;;9.00;6.80;;;;;;;;;;4967971;28;20043;-84
2023/06/11 05:47:53;;;;;;;9.40;6.35;;;;;;;;;;4981874;28;20050;-83
2023/06/11 05:50:39;;;;;;;8.45;6.70;;;;;;;;;;4967772;28;20042;-83
2023/06/11 05:53:24;;;;;;;11.30;6.63;;;;;;;;;;4968799;28;20046;-83
2023/06/11 05:56:11;;;;;;;10.35;7.28;;;;;;;;;;4968052;28;20050;-84
2023/06/11 05:58:58;;;;;;;12.27;7.00;;;;;;;;;;4968079;28;20051;-84
2023/06/11 06:01:45;;;;;;;10.85;6.55;;;;;;;;;;4954698;28;20408;-85
2023/06/11 06:04:32;;;;;;;7.78;6.38;;;;;;;;;;4967478;28;20043;-83
2023/06/11 06:07:18;;;;;;;8.15;6.78;;;;;;;;;;4968115;28;20491;-83
2023/06/11 06:10:05;;;;;;;7.55;5.90;;;;;;;;;;4968109;28;20047;-83
2023/06/11 06:12:50;;;;;;;7.32;6.25;;;;;;;;;;4967629;28;20064;-83
2023/06/11 06:15:36;;;;;;;9.68;6.57;;;;;;;;;;4961101;28;20479;-83
2023/06/11 06:18:22;;;;;;;9.23;6.50;;;;;;;;;;4966455;28;20073;-83
2023/06/11 06:21:07;;;;;;;7.45;5.63;;;;;;;;;;4978097;28;20046;-83
2023/06/11 06:23:53;;;;;;;11.13;7.78;;;;;;;;;;4967548;28;20051;-84
2023/06/11 06:26:40;;;;;;;9.23;6.47;;;;;;;;;;4953220;28;20484;-84
2023/06/11 06:29:26;;;;;;;10.88;7.13;;;;;;;;;;4967371;28;20488;-86
2023/06/11 06:32:12;;;;;;;13.82;7.03;;;;;;;;;;4953629;28;20042;-85
2023/06/11 06:34:57;;;;;;;9.65;7.30;;;;;;;;;;4953638;28;20042;-83
2023/06/11 06:37:43;;;;;;;8.63;7.18;;;;;;;;;;4975503;28;20058;-86
2023/06/11 06:40:28;;;;;;;13.25;8.18;;;;;;;;;;4953563;28;20042;-83
2023/06/11 06:43:14;;;;;;;9.55;6.43;;;;;;;;;;4967142;28;20046;-83
2023/06/11 06:46:02;;;;;;;8.98;6.65;;;;;;;;;;4952858;28;20039;-83
2023/06/11 06:48:53;;;;;;;8.95;6.95;;;;;;;;;;4953980;28;20054;-84
2023/06/11 06:51:38;;;;;;;10.07;6.90;;;;;;;;;;4966052;28;20404;-83
2023/06/11 06:54:25;;;;;;;11.55;6.60;;;;;;;;;;4953311;28;20043;-84
2023/06/11 06:57:11;;;;;;;11.93;6.22;;;;;;;;;;4953481;28;20403;-83
2023/06/11 06:59:56;;;;;;;8.07;6.25;;;;;;;;;;4979202;28;20042;-86
2023/06/11 07:02:42;;;;;;;6.90;6.03;;;;;;;;;;4937939;28;20046;-85
2023/06/11 07:05:28;;;;;;;9.18;6.68;;;;;;;;;;4966992;28;20046;-83
2023/06/11 07:08:14;;;;;;;9.00;6.70;;;;;;;;;;4966420;28;20043;-86
2023/06/11 07:11:02;;;;;;;10.60;6.72;;;;;;;;;;4966822;28;20050;-84
2023/06/11 07:13:55;;;;;;;8.73;6.65;;;;;;;;;;4964549;28;20047;-85
2023/06/11 07:16:40;;;;;;;8.55;6.05;;;;;;;;;;4960743;28;20043;-85
2023/06/11 07:19:25;;;;;;;10.65;6.32;;;;;;;;;;4964619;28;20046;-83
2023/06/11 07:22:11;;;;;;;8.70;6.43;;;;;;;;;;4965475;28;20046;-83
2023/06/11 07:24:59;;;;;;;7.28;5.38;;;;;;;;;;4967106;28;20484;-84
2023/06/11 07:27:45;;;;;;;6.78;5.97;;;;;;;;;;4966127;28;20046;-83
2023/06/11 07:30:33;;;;;;;10.07;6.43;;;;;;;;;;4953296;28;20042;-85
2023/06/11 07:33:19;;;;;;;8.15;6.40;;;;;;;;;;4966735;28;20047;-84
2023/06/11 07:36:06;;;;;;;10.00;6.55;;;;;;;;;;4962606;28;20043;-84
2023/06/11 07:38:50;;;;;;;10.32;6.20;;;;;;;;;;4969611;28;20500;-84
2023/06/11 07:41:37;;;;;;;9.98;5.90;;;;;;;;;;4970412;28;20046;-85
2023/06/11 07:44:25;;;;;;;8.20;6.15;;;;;;;;;;4970121;28;20050;-83
2023/06/11 07:47:10;;;;;;;6.38;4.93;;;;;;;;;;4951415;28;20400;-87
2023/06/11 07:49:56;;;;;;;9.38;5.40;;;;;;;;;;4949466;28;20039;-85
2023/06/11 07:52:42;;;;;;;5.80;5.07;;;;;;;;;;4950653;28;20043;-87
2023/06/11 07:55:35;;;;;;;6.60;5.13;;;;;;;;;;4962657;28;20051;-85
2023/06/11 07:58:20;;;;;;;9.05;5.25;;;;;;;;;;4950616;28;20047;-83
2023/06/11 08:01:06;;;;;;;7.28;5.13;;;;;;;;;;4950731;28;20051;-87
2023/06/11 08:03:52;;;;;;;9.52;5.00;;;;;;;;;;4950566;28;20039;-86
2023/06/11 08:06:40;;;;;;;11.70;5.35;;;;;;;;;;4950285;28;20047;-84
2023/06/11 08:09:25;;;;;;;8.07;5.45;;;;;;;;;;4949785;28;20047;-85
2023/06/11 08:12:11;;;;;;;7.68;5.30;;;;;;;;;;4950579;28;20047;-85
2023/06/11 08:14:57;;;;;;;9.38;5.25;;;;;;;;;;4936403;28;20039;-84
2023/06/11 08:17:43;;;;;;;9.40;5.30;;;;;;;;;;4963667;28;20055;-86
2023/06/11 08:20:28;;;;;;;5.75;4.70;;;;;;;;;;4950072;28;20491;-86
2023/06/11 08:23:14;;;;;;;7.15;5.07;;;;;;;;;;4949493;28;20043;-84
2023/06/11 08:25:58;;;;;;;6.32;5.15;;;;;;;;;;4949758;28;20416;-83
2023/06/11 08:28:44;;;;;;;6.95;5.40;;;;;;;;;;4950443;28;20059;-82
2023/06/11 08:31:30;;;;;;;6.90;4.93;;;;;;;;;;4949957;28;20035;-88
2023/06/11 08:34:15;;;;;;;6.32;5.53;;;;;;;;;;4950185;28;20063;-85
2023/06/11 08:37:00;;;;;;;6.72;4.88;;;;;;;;;;4947000;29;20051;-84
2023/06/11 08:39:45;;;;;;;8.48;4.65;;;;;;;;;;4950646;28;20054;-83
2023/06/11 08:42:31;;;;;;;6.47;4.78;;;;;;;;;;4950211;28;20396;-85
2023/06/11 08:45:17;;;;;;;7.55;4.65;;;;;;;;;;4949753;28;20043;-85
2023/06/11 08:48:03;;;;;;;6.13;4.78;;;;;;;;;;4936658;28;20489;-86
2023/06/11 08:50:52;;;;;;;7.50;5.15;;;;;;;;;;4950278;28;20066;-84
2023/06/11 08:53:39;;;;;;;7.30;4.65;;;;;;;;;;4949485;28;20047;-85
2023/06/11 08:56:26;;;;;;;8.02;4.53;;;;;;;;;;4937007;28;20469;-85
2023/06/11 08:59:12;;;;;;;5.90;3.90;;;;;;;;;;4936214;28;20047;-87
2023/06/11 09:01:58;;;;;;;5.35;4.10;;;;;;;;;;4950135;28;20055;-82
2023/06/11 09:04:44;;;;;;;12.07;8.70;;;;;;;;;;4936221;28;20035;-85
2023/06/11 09:07:30;;;;;;;4.80;3.83;;;;;;;;;;4949509;28;20039;-84
2023/06/11 09:10:15;;;;;;;8.07;4.00;;;;;;;;;;4949933;28;20400;-84
2023/06/11 09:13:00;;;;;;;4.85;4.20;;;;;;;;;;4949270;28;20051;-83
2023/06/11 09:15:48;;;;;;;4.25;3.83;;;;;;;;;;4949538;28;20043;-86
2023/06/11 09:18:32;;;;;;;5.88;4.43;;;;;;;;;;4949503;28;20396;-85
2023/06/11 09:21:18;;;;;;;7.03;4.53;;;;;;;;;;4936098;28;20051;-85
2023/06/11 09:24:10;;;;;;;5.82;4.28;;;;;;;;;;4949428;28;20047;-86
2023/06/11 09:26:57;;;;;;;8.10;4.47;;;;;;;;;;4962816;28;20039;-86
2023/06/11 09:29:44;;;;;;;7.85;5.70;;;;;;;;;;4949518;28;20473;-86
2023/06/11 09:32:29;;;;;;;5.20;4.20;;;;;;;;;;4935894;28;20050;-86
2023/06/11 09:35:15;;;;;;;9.35;6.10;;;;;;;;;;4948904;28;20052;-84
2023/06/11 09:38:01;;;;;;;5.63;4.10;;;;;;;;;;4943216;29;20040;-84
2023/06/11 09:40:51;;;;;;;6.43;4.32;;;;;;;;;;4935779;28;20047;-83
2023/06/11 09:43:36;;;;;;;5.28;3.50;;;;;;;;;;4949030;28;20035;-82
2023/06/11 09:46:23;;;;;;;5.15;4.65;;;;;;;;;;4962517;28;20039;-85
2023/06/11 09:49:09;;;;;;;7.75;4.10;;;;;;;;;;4935346;28;20051;-85
2023/06/11 09:51:54;;;;;;;6.30;4.40;;;;;;;;;;4962634;28;20047;-84
2023/06/11 09:54:42;;;;;;;5.43;4.75;;;;;;;;;;4934519;28;20050;-85
2023/06/11 09:57:29;;;;;;;5.50;4.55;;;;;;;;;;4949007;28;20050;-82
2023/06/11 10:00:15;;;;;;;7.00;5.72;;;;;;;;;;4948106;28;20051;-84
2023/06/11 10:03:00;;;;;;;6.72;5.22;;;;;;;;;;4948285;28;20043;-85
2023/06/11 10:05:46;;;;;;;7.78;6.13;;;;;;;;;;4948954;28;20039;-85
2023/06/11 10:08:35;;;;;;;5.97;5.30;;;;;;;;;;4948222;28;20414;-87
2023/06/11 10:11:22;;;;;;;4.05;3.50;;;;;;;;;;4935089;28;20051;-88
2023/06/11 10:14:12;;;;;;;5.00;4.05;;;;;;;;;;4950775;28;20054;-84
2023/06/11 10:16:57;;;;;;;4.30;3.90;;;;;;;;;;4965671;28;20051;-84
2023/06/11 10:19:47;;;;;;;7.60;5.20;;;;;;;;;;4954208;28;20491;-84
2023/06/11 10:22:34;;;;;;;9.63;5.82;;;;;;;;;;4974497;28;20042;-85
2023/06/11 10:25:20;;;;;;;8.77;6.10;;;;;;;;;;4967531;28;20046;-84
2023/06/11 10:28:06;;;;;;;9.43;7.07;;;;;;;;;;4967465;28;20471;-83
2023/06/11 10:30:53;;;;;;;8.70;7.18;;;;;;;;;;4953719;28;20142;-85
2023/06/11 10:33:45;;;;;;;10.73;8.35;;;;;;;;;;4967256;28;20043;-85
2023/06/11 10:36:40;;;;;;;12.35;9.15;;;;;;;;;;4964737;28;20043;-83
2023/06/11 10:39:26;;;;;;;8.65;7.75;;;;;;;;;;4967786;28;20043;-83
2023/06/11 10:42:11;;;;;;;10.70;8.30;;;;;;;;;;4967840;28;20059;-84
2023/06/11 10:44:58;;;;;;;9.90;8.10;;;;;;;;;;4966952;28;20043;-84
2023/06/11 10:47:46;;;;;;;9.25;7.88;;;;;;;;;;4953697;28;20483;-84
2023/06/11 10:50:35;;;;;;;10.52;8.68;;;;;;;;;;4973932;28;20046;-84
2023/06/11 10:53:20;;;;;;;8.18;7.28;;;;;;;;;;4974180;28;20046;-85
2023/06/11 10:56:13;;;;;;;8.90;7.40;;;;;;;;;;4966735;28;20034;-85
2023/06/11 10:58:58;;;;;;;8.95;8.00;;;;;;;;;;4966589;28;20039;-83
2023/06/11 11:01:43;;;;;;;8.90;6.97;;;;;;;;;;4966913;28;20054;-83
2023/06/11 11:04:29;;;;;;;8.70;6.90;;;;;;;;;;4953277;28;20046;-82
2023/06/11 11:07:14;;;;;;;7.03;6.32;;;;;;;;;;4957111;28;20046;-84
2023/06/11 11:10:01;;;;;;;8.68;6.35;;;;;;;;;;4975275;28;20055;-84
2023/06/11 11:12:47;;;;;;;7.55;6.53;;;;;;;;;;4963205;28;20043;-84
2023/06/11 11:15:33;;;;;;;8.02;7.22;;;;;;;;;;4959598;28;20047;-85
2023/06/11 11:18:19;;;;;;;5.90;5.30;;;;;;;;;;4974780;28;20050;-85
2023/06/11 11:21:04;;;;;;;6.70;5.55;;;;;;;;;;4971155;28;20047;-84
2023/06/11 11:23:50;;;;;;;6.68;4.35;;;;;;;;;;4966794;28;20059;-84
2023/06/11 11:26:42;;;;;;;5.30;4.50;;;;;;;;;;4966300;28;20464;-85
2023/06/11 11:29:27;;;;;;;4.95;3.97;;;;;;;;;;4953197;28;20058;-84
2023/06/11 11:32:12;;;;;;;5.65;5.07;;;;;;;;;;4966888;28;20391;-84
2023/06/11 11:34:58;;;;;;;6.38;5.75;;;;;;;;;;4953300;28;20399;-83
2023/06/11 11:37:48;;;;;;;6.13;5.53;;;;;;;;;;4961208;28;20054;-84
2023/06/11 11:40:36;;;;;;;6.75;6.05;;;;;;;;;;4960140;28;20047;-84
2023/06/11 11:43:23;;;;;;;7.20;6.18;;;;;;;;;;4966865;28;20051;-84
2023/06/11 11:46:24;;;;;;;8.02;6.05;;;;;;;;;;4953293;28;20043;-85
2023/06/11 11:49:10;;;;;;;8.57;5.80;;;;;;;;;;4980390;28;20054;-84
2023/06/11 11:51:57;;;;;;;7.25;5.32;;;;;;;;;;4953133;28;20050;-83
2023/06/11 11:54:44;;;;;;;7.38;5.82;;;;;;;;;;4968645;28;20492;-83
2023/06/11 11:57:30;;;;;;;6.55;5.32;;;;;;;;;;4980362;28;20046;-83
2023/06/11 12:00:25;;;;;;;5.40;4.55;;;;;;;;;;4953038;28;20047;-83
2023/06/11 12:03:10;;;;;;;;;;;;;;;;;;4966642;28;20063;-84
2023/06/11 12:05:57;;;;;;;6.50;5.47;;;;;;;;;;4979993;28;20367;-85
2023/06/11 12:08:42;;;;;;;5.75;5.15;;;;;;;;;;4952477;28;20050;-82
2023/06/11 12:11:27;;;;;;;7.25;5.50;;;;;;;;;;4954023;28;20492;-83
2023/06/11 12:14:13;;;;;;;7.53;5.95;;;;;;;;;;4970487;28;20046;-83
2023/06/11 12:16:59;;;;;;;5.45;4.80;;;;;;;;;;4978798;28;20042;-83
2023/06/11 12:19:44;;;;;;;8.13;5.68;;;;;;;;;;4972074;28;20042;-84
2023/06/11 12:22:30;;;;;;;6.20;5.40;;;;;;;;;;4971725;28;20046;-83
2023/06/11 12:25:15;;;;;;;7.05;6.03;;;;;;;;;;4989236;28;20042;-83
2023/06/11 12:28:01;;;;;;;6.18;5.57;;;;;;;;;;5002811;28;20054;-84
2023/06/11 12:30:47;;;;;;;5.82;5.30;;;;;;;;;;4989186;28;20491;-84
2023/06/11 12:33:33;;;;;;;6.18;5.57;;;;;;;;;;4988824;28;20050;-85
2023/06/11 12:36:19;;;;;;;6.72;6.00;;;;;;;;;;4973622;28;20051;-83
2023/06/11 12:39:04;;;;;;;6.15;5.55;;;;;;;;;;4989069;28;20399;-83
2023/06/11 12:41:51;;;;;;;6.50;5.80;;;;;;;;;;4982547;28;20046;-83
2023/06/11 12:44:36;;;;;;;6.30;5.60;;;;;;;;;;4982033;28;20046;-83
2023/06/11 12:47:21;;;;;;;7.75;6.63;;;;;;;;;;4996928;28;20034;-83
2023/06/11 12:50:07;;;;;;;7.65;6.35;;;;;;;;;;5002248;28;20050;-84
2023/06/11 12:52:53;;;;;;;6.88;6.18;;;;;;;;;;4982204;28;20034;-82
2023/06/11 12:55:38;;;;;;;9.27;6.47;;;;;;;;;;4982329;28;20046;-84
2023/06/11 12:58:24;;;;;;;6.82;5.63;;;;;;;;;;4988215;28;20039;-84
2023/06/11 13:01:09;;;;;;;6.47;5.72;;;;;;;;;;4974961;28;20054;-85
2023/06/11 13:03:55;;;;;;;6.40;5.78;;;;;;;;;;4996522;28;20038;-83
2023/06/11 13:06:43;;;;;;;7.88;5.85;;;;;;;;;;4974937;28;20038;-84
2023/06/11 13:09:28;;;;;;;6.07;5.03;;;;;;;;;;4988404;28;20046;-84
2023/06/11 13:12:14;;;;;;;6.78;6.07;;;;;;;;;;4974561;28;20046;-83
2023/06/11 13:14:59;;;;;;;8.32;6.00;;;;;;;;;;4988437;28;20046;-84
2023/06/11 13:17:44;;;;;;;8.77;6.47;;;;;;;;;;4988008;28;20395;-83
2023/06/11 13:20:29;;;;;;;7.13;5.90;;;;;;;;;;4966883;28;20059;-83
2023/06/11 13:23:20;;;;;;;7.95;5.93;;;;;;;;;;4962889;28;20042;-83
2023/06/11 13:26:05;;;;;;;6.60;5.93;;;;;;;;;;4964801;28;20051;-84
2023/06/11 13:28:51;;;;;;;6.22;5.63;;;;;;;;;;4949468;28;20393;-85
2023/06/11 13:31:39;;;;;;;8.30;5.82;;;;;;;;;;4949378;28;20047;-84
2023/06/11 13:34:24;;;;;;;7.30;6.30;;;;;;;;;;4958113;28;20050;-84
2023/06/11 13:37:10;;;;;;;7.63;6.18;;;;;;;;;;4977814;28;20491;-84
2023/06/11 13:39:56;;;;;;;7.30;5.78;;;;;;;;;;4981754;28;20059;-83
2023/06/11 13:42:42;;;;;;;7.43;6.07;;;;;;;;;;4968393;28;20039;-84
2023/06/11 13:45:27;;;;;;;7.70;5.82;;;;;;;;;;4968111;28;20042;-83
2023/06/11 13:48:14;;;;;;;6.85;5.80;;;;;;;;;;4968264;28;20050;-83
2023/06/11 13:51:00;;;;;;;7.20;6.18;;;;;;;;;;4979981;28;20384;-84
2023/06/11 13:53:45;;;;;;;8.15;5.20;;;;;;;;;;4958746;28;20488;-84
2023/06/11 13:56:31;;;;;;;6.10;5.30;;;;;;;;;;4980292;28;20034;-84
2023/06/11 13:59:19;;;;;;;6.70;6.00;;;;;;;;;;4961688;28;20051;-85
2023/06/11 14:02:04;;;;;;;9.07;5.90;;;;;;;;;;4967900;28;20054;-85
2023/06/11 14:04:52;;;;;;;8.23;6.13;;;;;;;;;;4989093;28;20046;-85
2023/06/11 14:07:38;;;;;;;9.18;6.72;;;;;;;;;;4981153;28;20035;-84
2023/06/11 14:10:26;;;;;;;6.43;5.80;;;;;;;;;;4986864;28;20047;-83
2023/06/11 14:13:11;;;;;;;7.43;6.10;;;;;;;;;;4956839;28;20492;-85
2023/06/11 14:15:57;;;;;;;6.07;5.47;;;;;;;;;;4961515;28;20043;-87
2023/06/11 14:18:42;;;;;;;6.50;5.13;;;;;;;;;;4935265;28;20039;-86
2023/06/11 14:21:28;;;;;;;14.75;9.65;;;;;;;;;;4961679;28;20046;-86
2023/06/11 14:24:14;;;;;;;33.05;16.27;;;;;;;;;;4948536;28;20051;-83
2023/06/11 14:26:59;;;;;;;4.97;4.47;;;;;;;;;;4948564;28;20404;-84
2023/06/11 14:29:45;;;;;;;4.90;3.78;;;;;;;;;;4948151;28;20047;-85
2023/06/11 14:32:32;;;;;;;4.68;3.60;;;;;;;;;;4955248;29;20051;-83
2023/06/11 14:35:17;;;;;;;4.70;3.42;;;;;;;;;;4947989;28;20035;-84
2023/06/11 14:38:03;;;;;;;4.85;3.35;;;;;;;;;;4956202;28;20051;-85
2023/06/11 14:40:48;;;;;;;4.60;3.53;;;;;;;;;;4948168;28;20047;-85
2023/06/11 14:43:34;;;;;;;4.10;3.47;;;;;;;;;;4934521;28;20059;-85
2023/06/11 14:46:19;;;;;;;7.55;4.80;;;;;;;;;;4947905;28;20484;-85
2023/06/11 14:49:05;;;;;;;6.93;4.30;;;;;;;;;;4961307;28;20035;-84
2023/06/11 14:51:50;;;;;;;4.40;3.33;;;;;;;;;;4941879;29;20043;-84
2023/06/11 14:54:37;;;;;;;6.13;3.40;;;;;;;;;;4961413;28;20046;-83
2023/06/11 14:57:23;;;;;;;4.45;3.42;;;;;;;;;;4947370;28;20039;-83
2023/06/11 15:00:09;;;;;;;4.32;3.55;;;;;;;;;;4961243;28;20487;-85
2023/06/11 15:02:55;;;;;;;3.88;3.47;;;;;;;;;;4947658;28;20042;-83
2023/06/11 15:05:40;;;;;;;4.00;3.50;;;;;;;;;;4948052;28;20047;-83
2023/06/11 15:08:26;;;;;;;7.32;4.07;;;;;;;;;;4947999;28;20047;-83
2023/06/11 15:11:12;;;;;;;7.38;5.13;;;;;;;;;;4960974;28;20484;-84
2023/06/11 15:13:57;;;;;;;6.20;4.85;;;;;;;;;;4947684;28;20058;-84
2023/06/11 15:16:43;;;;;;;7.80;4.22;;;;;;;;;;4947175;28;20051;-84
2023/06/11 15:19:29;;;;;;;10.60;5.63;;;;;;;;;;4948036;28;20047;-84
2023/06/11 15:22:14;;;;;;;12.77;6.97;;;;;;;;;;4961309;28;20055;-83
2023/06/11 15:24:59;;;;;;;6.85;4.32;;;;;;;;;;4955616;28;20054;-85
2023/06/11 15:27:49;;;;;;;6.93;4.80;;;;;;;;;;4967269;28;20476;-84
2023/06/11 15:30:36;;;;;;;6.50;3.72;;;;;;;;;;4974818;28;20051;-84
2023/06/11 15:33:22;;;;;;;5.85;3.78;;;;;;;;;;4953210;28;20046;-83
2023/06/11 15:36:07;;;;;;;4.45;3.40;;;;;;;;;;4960394;28;20043;-85
2023/06/11 15:38:53;;;;;;;5.10;3.80;;;;;;;;;;4965809;28;20055;-84
2023/06/11 15:41:38;;;;;;;6.10;3.47;;;;;;;;;;4966492;28;20042;-85
2023/06/11 15:44:23;;;;;;;6.72;3.35;;;;;;;;;;4953152;28;20046;-84
2023/06/11 15:47:10;;;;;;;4.35;3.15;;;;;;;;;;4966854;28;20046;-84
2023/06/11 15:49:56;;;;;;;4.20;3.28;;;;;;;;;;4966869;28;20046;-84
2023/06/11 15:52:41;;;;;;;4.13;3.40;;;;;;;;;;4979405;28;20039;-83
2023/06/11 15:55:26;;;;;;;3.47;3.15;;;;;;;;;;4965806;28;20047;-84
2023/06/11 15:58:11;;;;;;;4.18;3.08;;;;;;;;;;4974703;28;20396;-83
2023/06/11 16:00:57;;;;;;;3.22;2.92;;;;;;;;;;4957244;28;20043;-84
2023/06/11 16:03:42;;;;;;;4.18;3.40;;;;;;;;;;4970181;28;20487;-83
2023/06/11 16:06:28;;;;;;;3.10;2.70;;;;;;;;;;4956182;28;20042;-84
2023/06/11 16:09:13;;;;;;;4.18;3.13;;;;;;;;;;4972003;28;20047;-84
2023/06/11 16:11:59;;;;;;;3.88;3.00;;;;;;;;;;4976538;28;20047;-84
2023/06/11 16:14:44;;;;;;;3.40;3.10;;;;;;;;;;4976389;28;20039;-83
2023/06/11 16:17:30;;;;;;;3.30;3.00;;;;;;;;;;4975886;28;20047;-83
2023/06/11 16:20:16;;;;;;;6.88;4.10;;;;;;;;;;4977543;28;20054;-83
2023/06/11 16:23:02;;;;;;;5.13;2.97;;;;;;;;;;4964837;28;20488;-84
2023/06/11 16:25:47;;;;;;;3.78;2.83;;;;;;;;;;4970458;28;20051;-84
2023/06/11 16:28:32;;;;;;;4.07;2.78;;;;;;;;;;4972686;28;20046;-85
2023/06/11 16:31:17;;;;;;;4.90;3.22;;;;;;;;;;4969753;28;20043;-84